sensor_id;sensor_type;location;lat;lon;timestamp;P1;durP1;ratioP1;P2;durP2;ratioP2
8401;SDS011;4238;48.404;9.498;2023-05-16T04:01:40;20.20;;;16.77;;
8401;SDS011;4238;48.404;9.498;2023-05-16T04:04:06;20.73;;;17.60;;
8401;SDS011;4238;48.404;9.498;2023-05-16T04:06:33;20.53;;;16.83;;
8401;SDS011;4238;48.404;9.498;2023-05-16T04:09:00;19.77;;;16.20;;
8401;SDS011;4238;48.404;9.498;2023-05-16T04:11:27;20.73;;;16.73;;
8401;SDS011;4238;48.404;9.498;2023-05-16T04:13:54;22.67;;;17.60;;
8401;SDS011;4238;48.404;9.498;2023-05-16T04:16:21;24.47;;;18.77;;
8401;SDS011;4238;48.404;9.498;2023-05-16T04:18:49;25.90;;;21.10;;
8401;SDS011;4238;48.404;9.498;2023-05-16T04:21:16;25.60;;;21.40;;
8401;SDS011;4238;48.404;9.498;2023-05-16T04:23:43;25.37;;;20.77;;
8401;SDS011;4238;48.404;9.498;2023-05-16T04:26:09;24.33;;;20.10;;
8401;SDS011;4238;48.404;9.498;2023-05-16T04:28:36;26.37;;;21.70;;
8401;SDS011;4238;48.404;9.498;2023-05-16T04:31:03;28.43;;;21.77;;
8401;SDS011;4238;48.404;9.498;2023-05-16T04:33:30;30.10;;;22.93;;
8401;SDS011;4238;48.404;9.498;2023-05-16T04:35:58;28.20;;;22.07;;
8401;SDS011;4238;48.404;9.498;2023-05-16T04:38:25;37.97;;;29.93;;
8401;SDS011;4238;48.404;9.498;2023-05-16T04:40:52;31.77;;;26.17;;
8401;SDS011;4238;48.404;9.498;2023-05-16T04:43:19;30.63;;;25.80;;
8401;SDS011;4238;48.404;9.498;2023-05-16T04:45:46;31.58;;;27.10;;
8401;SDS011;4238;48.404;9.498;2023-05-16T04:48:14;31.97;;;26.03;;
8401;SDS011;4238;48.404;9.498;2023-05-16T04:50:41;30.87;;;26.37;;
8401;SDS011;4238;48.404;9.498;2023-05-16T04:53:10;30.77;;;25.83;;
8401;SDS011;4238;48.404;9.498;2023-05-16T04:55:39;32.03;;;25.27;;
8401;SDS011;4238;48.404;9.498;2023-05-16T04:58:06;33.10;;;26.33;;
8401;SDS011;4238;48.404;9.498;2023-05-16T05:00:33;32.43;;;26.53;;
8401;SDS011;4238;48.404;9.498;2023-05-16T05:03:00;30.80;;;25.17;;
8401;SDS011;4238;48.404;9.498;2023-05-16T05:05:27;32.30;;;25.63;;
8401;SDS011;4238;48.404;9.498;2023-05-16T05:07:53;32.83;;;25.57;;
8401;SDS011;4238;48.404;9.498;2023-05-16T05:10:24;32.87;;;25.93;;
8401;SDS011;4238;48.404;9.498;2023-05-16T05:12:51;31.27;;;25.87;;
8401;SDS011;4238;48.404;9.498;2023-05-16T05:15:18;31.77;;;25.53;;
8401;SDS011;4238;48.404;9.498;2023-05-16T05:17:45;31.97;;;25.47;;
8401;SDS011;4238;48.404;9.498;2023-05-16T05:20:12;30.60;;;24.80;;
8401;SDS011;4238;48.404;9.498;2023-05-16T05:22:39;30.87;;;26.90;;
8401;SDS011;4238;48.404;9.498;2023-05-16T05:25:06;33.30;;;25.90;;
8401;SDS011;4238;48.404;9.498;2023-05-16T05:27:35;30.77;;;24.77;;
8401;SDS011;4238;48.404;9.498;2023-05-16T05:30:03;33.43;;;25.07;;
8401;SDS011;4238;48.404;9.498;2023-05-16T05:32:30;29.93;;;25.07;;
8401;SDS011;4238;48.404;9.498;2023-05-16T05:34:57;34.77;;;26.73;;
8401;SDS011;4238;48.404;9.498;2023-05-16T05:37:24;31.27;;;24.67;;
8401;SDS011;4238;48.404;9.498;2023-05-16T05:39:52;33.53;;;25.83;;
8401;SDS011;4238;48.404;9.498;2023-05-16T05:42:19;33.57;;;26.73;;
8401;SDS011;4238;48.404;9.498;2023-05-16T05:44:47;30.77;;;25.90;;
8401;SDS011;4238;48.404;9.498;2023-05-16T05:47:14;31.93;;;26.30;;
8401;SDS011;4238;48.404;9.498;2023-05-16T05:49:41;30.23;;;25.23;;
8401;SDS011;4238;48.404;9.498;2023-05-16T05:52:08;31.63;;;24.77;;
8401;SDS011;4238;48.404;9.498;2023-05-16T05:54:35;29.93;;;25.37;;
8401;SDS011;4238;48.404;9.498;2023-05-16T05:57:02;31.27;;;26.77;;
8401;SDS011;4238;48.404;9.498;2023-05-16T05:59:29;29.33;;;25.03;;
8401;SDS011;4238;48.404;9.498;2023-05-16T06:01:58;32.33;;;25.93;;
8401;SDS011;4238;48.404;9.498;2023-05-16T06:04:24;30.00;;;25.80;;
8401;SDS011;4238;48.404;9.498;2023-05-16T06:06:51;34.33;;;26.60;;
8401;SDS011;4238;48.404;9.498;2023-05-16T06:09:19;32.00;;;26.83;;
8401;SDS011;4238;48.404;9.498;2023-05-16T06:11:46;31.73;;;26.23;;
8401;SDS011;4238;48.404;9.498;2023-05-16T06:14:13;32.63;;;28.20;;
8401;SDS011;4238;48.404;9.498;2023-05-16T06:16:40;36.33;;;28.00;;
8401;SDS011;4238;48.404;9.498;2023-05-16T06:19:09;33.60;;;26.73;;
8401;SDS011;4238;48.404;9.498;2023-05-16T06:21:36;32.47;;;26.97;;
8401;SDS011;4238;48.404;9.498;2023-05-16T06:24:03;37.27;;;27.63;;
8401;SDS011;4238;48.404;9.498;2023-05-16T06:26:31;32.97;;;27.57;;
8401;SDS011;4238;48.404;9.498;2023-05-16T06:28:58;37.80;;;28.63;;
8401;SDS011;4238;48.404;9.498;2023-05-16T06:31:25;35.37;;;27.70;;
8401;SDS011;4238;48.404;9.498;2023-05-16T06:33:52;33.60;;;27.63;;
8401;SDS011;4238;48.404;9.498;2023-05-16T06:36:21;37.53;;;27.40;;
8401;SDS011;4238;48.404;9.498;2023-05-16T06:38:48;32.63;;;26.50;;
8401;SDS011;4238;48.404;9.498;2023-05-16T06:41:15;37.03;;;27.87;;
8401;SDS011;4238;48.404;9.498;2023-05-16T06:43:42;36.33;;;27.93;;
8401;SDS011;4238;48.404;9.498;2023-05-16T06:46:09;38.40;;;29.90;;
8401;SDS011;4238;48.404;9.498;2023-05-16T06:48:36;36.93;;;30.10;;
8401;SDS011;4238;48.404;9.498;2023-05-16T06:51:03;35.57;;;29.50;;
8401;SDS011;4238;48.404;9.498;2023-05-16T06:53:31;34.20;;;27.50;;
8401;SDS011;4238;48.404;9.498;2023-05-16T06:55:58;33.10;;;26.97;;
8401;SDS011;4238;48.404;9.498;2023-05-16T06:58:25;34.73;;;27.57;;
8401;SDS011;4238;48.404;9.498;2023-05-16T07:00:52;35.00;;;26.80;;
8401;SDS011;4238;48.404;9.498;2023-05-16T07:03:19;32.77;;;26.97;;
8401;SDS011;4238;48.404;9.498;2023-05-16T07:05:46;33.53;;;27.37;;
8401;SDS011;4238;48.404;9.498;2023-05-16T07:08:15;33.13;;;27.70;;
8401;SDS011;4238;48.404;9.498;2023-05-16T07:10:43;36.43;;;27.87;;
8401;SDS011;4238;48.404;9.498;2023-05-16T07:13:10;33.27;;;26.40;;
8401;SDS011;4238;48.404;9.498;2023-05-16T07:15:37;31.77;;;26.47;;
8401;SDS011;4238;48.404;9.498;2023-05-16T07:18:04;36.40;;;28.53;;
8401;SDS011;4238;48.404;9.498;2023-05-16T07:20:31;33.90;;;27.63;;
8401;SDS011;4238;48.404;9.498;2023-05-16T07:22:58;40.27;;;29.53;;
8401;SDS011;4238;48.404;9.498;2023-05-16T07:25:25;35.30;;;26.97;;
8401;SDS011;4238;48.404;9.498;2023-05-16T07:27:53;38.17;;;27.80;;
8401;SDS011;4238;48.404;9.498;2023-05-16T07:30:20;37.50;;;28.57;;
8401;SDS011;4238;48.404;9.498;2023-05-16T07:32:47;37.60;;;29.43;;
8401;SDS011;4238;48.404;9.498;2023-05-16T07:35:14;36.87;;;28.90;;
8401;SDS011;4238;48.404;9.498;2023-05-16T07:37:41;40.83;;;29.60;;
8401;SDS011;4238;48.404;9.498;2023-05-16T07:40:09;37.83;;;30.80;;
8401;SDS011;4238;48.404;9.498;2023-05-16T07:42:36;38.53;;;29.70;;
8401;SDS011;4238;48.404;9.498;2023-05-16T07:45:05;38.93;;;30.60;;
8401;SDS011;4238;48.404;9.498;2023-05-16T07:47:32;39.63;;;28.40;;
8401;SDS011;4238;48.404;9.498;2023-05-16T07:50:00;35.03;;;28.47;;
8401;SDS011;4238;48.404;9.498;2023-05-16T07:52:27;36.73;;;29.30;;
8401;SDS011;4238;48.404;9.498;2023-05-16T07:54:54;37.37;;;30.17;;
8401;SDS011;4238;48.404;9.498;2023-05-16T07:57:21;40.20;;;32.80;;
8401;SDS011;4238;48.404;9.498;2023-05-16T07:59:48;38.77;;;30.90;;
8401;SDS011;4238;48.404;9.498;2023-05-16T08:02:17;37.70;;;28.47;;
8401;SDS011;4238;48.404;9.498;2023-05-16T08:04:44;36.47;;;28.33;;
8401;SDS011;4238;48.404;9.498;2023-05-16T08:07:12;37.10;;;28.80;;
8401;SDS011;4238;48.404;9.498;2023-05-16T08:09:39;36.93;;;30.43;;
8401;SDS011;4238;48.404;9.498;2023-05-16T08:12:07;38.20;;;28.77;;
8401;SDS011;4238;48.404;9.498;2023-05-16T08:14:34;37.23;;;27.97;;
8401;SDS011;4238;48.404;9.498;2023-05-16T08:17:02;38.40;;;28.20;;
8401;SDS011;4238;48.404;9.498;2023-05-16T08:19:30;38.30;;;28.60;;
8401;SDS011;4238;48.404;9.498;2023-05-16T08:21:57;36.23;;;27.97;;
8401;SDS011;4238;48.404;9.498;2023-05-16T08:24:24;34.97;;;27.17;;
8401;SDS011;4238;48.404;9.498;2023-05-16T08:26:52;35.23;;;27.33;;
8401;SDS011;4238;48.404;9.498;2023-05-16T08:29:19;40.67;;;30.87;;
8401;SDS011;4238;48.404;9.498;2023-05-16T08:31:46;36.27;;;29.47;;
8401;SDS011;4238;48.404;9.498;2023-05-16T08:34:13;40.47;;;28.20;;
8401;SDS011;4238;48.404;9.498;2023-05-16T08:36:42;39.70;;;30.70;;
8401;SDS011;4238;48.404;9.498;2023-05-16T08:39:09;37.13;;;29.67;;
8401;SDS011;4238;48.404;9.498;2023-05-16T08:41:36;39.00;;;29.50;;
8401;SDS011;4238;48.404;9.498;2023-05-16T08:44:03;32.87;;;27.03;;
8401;SDS011;4238;48.404;9.498;2023-05-16T08:46:32;32.17;;;24.80;;
8401;SDS011;4238;48.404;9.498;2023-05-16T08:48:59;31.70;;;25.40;;
8401;SDS011;4238;48.404;9.498;2023-05-16T08:51:30;29.13;;;25.57;;
8401;SDS011;4238;48.404;9.498;2023-05-16T08:54:02;29.00;;;24.63;;
8401;SDS011;4238;48.404;9.498;2023-05-16T08:56:32;29.67;;;23.97;;
8401;SDS011;4238;48.404;9.498;2023-05-16T08:59:00;26.53;;;23.43;;
8401;SDS011;4238;48.404;9.498;2023-05-16T09:01:28;30.43;;;24.03;;
8401;SDS011;4238;48.404;9.498;2023-05-16T09:03:56;25.90;;;22.73;;
8401;SDS011;4238;48.404;9.498;2023-05-16T09:06:24;29.60;;;24.73;;
8401;SDS011;4238;48.404;9.498;2023-05-16T09:08:51;27.90;;;22.03;;
8401;SDS011;4238;48.404;9.498;2023-05-16T09:11:19;24.83;;;21.20;;
8401;SDS011;4238;48.404;9.498;2023-05-16T09:13:47;28.17;;;21.43;;
8401;SDS011;4238;48.404;9.498;2023-05-16T09:16:14;24.40;;;20.57;;
8401;SDS011;4238;48.404;9.498;2023-05-16T09:18:43;24.97;;;22.27;;
8401;SDS011;4238;48.404;9.498;2023-05-16T09:21:11;25.60;;;20.73;;
8401;SDS011;4238;48.404;9.498;2023-05-16T09:23:41;23.83;;;20.10;;
8401;SDS011;4238;48.404;9.498;2023-05-16T09:26:08;22.80;;;18.70;;
8401;SDS011;4238;48.404;9.498;2023-05-16T09:28:37;23.50;;;19.27;;
8401;SDS011;4238;48.404;9.498;2023-05-16T09:31:18;24.53;;;19.37;;
8401;SDS011;4238;48.404;9.498;2023-05-16T09:33:46;22.57;;;18.30;;
8401;SDS011;4238;48.404;9.498;2023-05-16T09:36:14;21.03;;;18.30;;
8401;SDS011;4238;48.404;9.498;2023-05-16T09:38:41;20.03;;;17.40;;
8401;SDS011;4238;48.404;9.498;2023-05-16T09:41:08;19.53;;;16.80;;
8401;SDS011;4238;48.404;9.498;2023-05-16T09:43:38;19.70;;;16.80;;
8401;SDS011;4238;48.404;9.498;2023-05-16T09:46:07;20.17;;;17.60;;
8401;SDS011;4238;48.404;9.498;2023-05-16T09:48:34;19.47;;;16.63;;
8401;SDS011;4238;48.404;9.498;2023-05-16T09:51:02;21.47;;;18.90;;
8401;SDS011;4238;48.404;9.498;2023-05-16T09:53:31;18.87;;;16.40;;
8401;SDS011;4238;48.404;9.498;2023-05-16T09:56:02;20.57;;;17.07;;
8401;SDS011;4238;48.404;9.498;2023-05-16T09:58:32;23.50;;;19.17;;
8401;SDS011;4238;48.404;9.498;2023-05-16T10:01:01;19.73;;;17.63;;
8401;SDS011;4238;48.404;9.498;2023-05-16T10:03:28;19.60;;;17.07;;
8401;SDS011;4238;48.404;9.498;2023-05-16T10:05:56;18.33;;;16.13;;
8401;SDS011;4238;48.404;9.498;2023-05-16T10:08:23;17.60;;;15.37;;
8401;SDS011;4238;48.404;9.498;2023-05-16T10:10:52;19.60;;;16.30;;
8401;SDS011;4238;48.404;9.498;2023-05-16T10:13:20;19.17;;;17.03;;
8401;SDS011;4238;48.404;9.498;2023-05-16T10:15:48;20.30;;;16.87;;
8401;SDS011;4238;48.404;9.498;2023-05-16T10:18:17;19.43;;;17.07;;
8401;SDS011;4238;48.404;9.498;2023-05-16T10:20:48;18.73;;;16.70;;
8401;SDS011;4238;48.404;9.498;2023-05-16T10:23:19;20.27;;;18.07;;
8401;SDS011;4238;48.404;9.498;2023-05-16T10:25:47;19.57;;;17.30;;
8401;SDS011;4238;48.404;9.498;2023-05-16T10:28:14;20.80;;;18.60;;
8401;SDS011;4238;48.404;9.498;2023-05-16T10:30:42;19.87;;;17.27;;
8401;SDS011;4238;48.404;9.498;2023-05-16T10:33:11;19.93;;;17.83;;
8401;SDS011;4238;48.404;9.498;2023-05-16T10:35:40;18.00;;;16.07;;
8401;SDS011;4238;48.404;9.498;2023-05-16T10:38:07;18.13;;;16.23;;
8401;SDS011;4238;48.404;9.498;2023-05-16T10:40:36;17.10;;;15.27;;
8401;SDS011;4238;48.404;9.498;2023-05-16T10:43:04;19.33;;;16.43;;
8401;SDS011;4238;48.404;9.498;2023-05-16T10:45:32;20.13;;;16.67;;
8401;SDS011;4238;48.404;9.498;2023-05-16T10:48:00;18.33;;;16.43;;
8401;SDS011;4238;48.404;9.498;2023-05-16T10:50:35;17.97;;;16.13;;
8401;SDS011;4238;48.404;9.498;2023-05-16T10:53:12;17.70;;;15.87;;
8401;SDS011;4238;48.404;9.498;2023-05-16T10:55:50;17.07;;;15.27;;
8401;SDS011;4238;48.404;9.498;2023-05-16T10:58:43;17.67;;;15.83;;
8401;SDS011;4238;48.404;9.498;2023-05-16T11:04:02;18.90;;;16.80;;
8401;SDS011;4238;48.404;9.498;2023-05-16T11:06:34;18.20;;;16.33;;
8401;SDS011;4238;48.404;9.498;2023-05-16T11:09:18;18.60;;;16.63;;
8401;SDS011;4238;48.404;9.498;2023-05-16T11:11:53;17.93;;;16.00;;
8401;SDS011;4238;48.404;9.498;2023-05-16T11:14:22;19.87;;;16.53;;
8401;SDS011;4238;48.404;9.498;2023-05-16T11:16:56;18.27;;;16.37;;
8401;SDS011;4238;48.404;9.498;2023-05-16T11:19:30;16.53;;;14.83;;
8401;SDS011;4238;48.404;9.498;2023-05-16T11:22:05;16.73;;;15.03;;
8401;SDS011;4238;48.404;9.498;2023-05-16T11:24:47;16.77;;;15.10;;
8401;SDS011;4238;48.404;9.498;2023-05-16T11:27:23;18.77;;;16.07;;
8401;SDS011;4238;48.404;9.498;2023-05-16T11:29:52;19.37;;;17.30;;
8401;SDS011;4238;48.404;9.498;2023-05-16T11:32:20;16.80;;;15.00;;
8401;SDS011;4238;48.404;9.498;2023-05-16T11:34:48;15.43;;;13.85;;
8401;SDS011;4238;48.404;9.498;2023-05-16T11:37:16;16.15;;;14.45;;
8401;SDS011;4238;48.404;9.498;2023-05-16T11:39:46;16.50;;;14.60;;
8401;SDS011;4238;48.404;9.498;2023-05-16T11:42:13;17.30;;;15.40;;
8401;SDS011;4238;48.404;9.498;2023-05-16T11:44:40;16.53;;;14.23;;
8401;SDS011;4238;48.404;9.498;2023-05-16T11:47:07;16.00;;;14.40;;
8401;SDS011;4238;48.404;9.498;2023-05-16T11:49:34;18.23;;;16.33;;
8401;SDS011;4238;48.404;9.498;2023-05-16T11:52:01;17.10;;;14.93;;
8401;SDS011;4238;48.404;9.498;2023-05-16T11:54:29;17.25;;;15.48;;
8401;SDS011;4238;48.404;9.498;2023-05-16T11:56:57;17.35;;;15.45;;
8401;SDS011;4238;48.404;9.498;2023-05-16T11:59:24;17.95;;;15.85;;
8401;SDS011;4238;48.404;9.498;2023-05-16T12:01:51;16.03;;;14.33;;
8401;SDS011;4238;48.404;9.498;2023-05-16T12:04:18;16.13;;;14.47;;
8401;SDS011;4238;48.404;9.498;2023-05-16T12:06:56;14.95;;;13.38;;
8401;SDS011;4238;48.404;9.498;2023-05-16T12:09:25;17.23;;;15.57;;
8401;SDS011;4238;48.404;9.498;2023-05-16T12:11:52;16.83;;;14.73;;
8401;SDS011;4238;48.404;9.498;2023-05-16T12:14:20;16.13;;;14.63;;
8401;SDS011;4238;48.404;9.498;2023-05-16T12:16:47;16.10;;;14.43;;
8401;SDS011;4238;48.404;9.498;2023-05-16T12:19:16;15.50;;;13.95;;
8401;SDS011;4238;48.404;9.498;2023-05-16T12:21:43;14.97;;;13.47;;
8401;SDS011;4238;48.404;9.498;2023-05-16T12:24:10;13.80;;;12.32;;
8401;SDS011;4238;48.404;9.498;2023-05-16T12:26:38;15.48;;;13.98;;
8401;SDS011;4238;48.404;9.498;2023-05-16T12:29:06;13.65;;;12.35;;
8401;SDS011;4238;48.404;9.498;2023-05-16T12:31:37;13.27;;;11.90;;
8401;SDS011;4238;48.404;9.498;2023-05-16T12:34:13;14.30;;;12.90;;
8401;SDS011;4238;48.404;9.498;2023-05-16T12:36:41;14.15;;;12.73;;
8401;SDS011;4238;48.404;9.498;2023-05-16T12:39:10;12.88;;;11.57;;
8401;SDS011;4238;48.404;9.498;2023-05-16T12:41:39;14.32;;;12.75;;
8401;SDS011;4238;48.404;9.498;2023-05-16T12:44:10;16.27;;;14.57;;
8401;SDS011;4238;48.404;9.498;2023-05-16T12:46:43;16.10;;;14.50;;
8401;SDS011;4238;48.404;9.498;2023-05-16T12:49:11;13.75;;;12.35;;
8401;SDS011;4238;48.404;9.498;2023-05-16T12:51:38;14.38;;;12.88;;
8401;SDS011;4238;48.404;9.498;2023-05-16T12:54:09;15.25;;;13.23;;
8401;SDS011;4238;48.404;9.498;2023-05-16T12:56:37;14.13;;;12.77;;
8401;SDS011;4238;48.404;9.498;2023-05-16T12:59:05;16.57;;;14.87;;
8401;SDS011;4238;48.404;9.498;2023-05-16T13:01:32;16.48;;;14.70;;
8401;SDS011;4238;48.404;9.498;2023-05-16T13:04:00;16.53;;;14.70;;
8401;SDS011;4238;48.404;9.498;2023-05-16T13:06:28;14.82;;;12.07;;
8401;SDS011;4238;48.404;9.498;2023-05-16T13:08:55;13.40;;;12.00;;
8401;SDS011;4238;48.404;9.498;2023-05-16T13:11:22;13.65;;;11.82;;
8401;SDS011;4238;48.404;9.498;2023-05-16T13:13:50;12.73;;;11.43;;
8401;SDS011;4238;48.404;9.498;2023-05-16T13:16:17;13.88;;;12.48;;
8401;SDS011;4238;48.404;9.498;2023-05-16T13:18:44;14.32;;;12.82;;
8401;SDS011;4238;48.404;9.498;2023-05-16T13:21:12;17.00;;;15.20;;
8401;SDS011;4238;48.404;9.498;2023-05-16T13:23:39;16.30;;;14.60;;
8401;SDS011;4238;48.404;9.498;2023-05-16T13:26:06;14.67;;;13.17;;
8401;SDS011;4238;48.404;9.498;2023-05-16T13:28:33;14.97;;;13.30;;
8401;SDS011;4238;48.404;9.498;2023-05-16T13:31:01;17.27;;;15.47;;
8401;SDS011;4238;48.404;9.498;2023-05-16T13:33:28;14.90;;;13.37;;
8401;SDS011;4238;48.404;9.498;2023-05-16T13:35:55;15.20;;;13.60;;
8401;SDS011;4238;48.404;9.498;2023-05-16T13:38:23;14.57;;;13.07;;
8401;SDS011;4238;48.404;9.498;2023-05-16T13:40:50;16.53;;;13.80;;
8401;SDS011;4238;48.404;9.498;2023-05-16T13:43:17;15.43;;;13.57;;
8401;SDS011;4238;48.404;9.498;2023-05-16T13:45:44;17.63;;;14.83;;
8401;SDS011;4238;48.404;9.498;2023-05-16T13:48:11;15.57;;;13.93;;
8401;SDS011;4238;48.404;9.498;2023-05-16T13:50:38;15.53;;;13.93;;
8401;SDS011;4238;48.404;9.498;2023-05-16T13:53:05;15.63;;;13.97;;
8401;SDS011;4238;48.404;9.498;2023-05-16T13:55:33;14.37;;;12.87;;
8401;SDS011;4238;48.404;9.498;2023-05-16T13:58:00;13.37;;;12.07;;
8401;SDS011;4238;48.404;9.498;2023-05-16T14:00:27;12.37;;;11.17;;
8401;SDS011;4238;48.404;9.498;2023-05-16T14:02:54;12.57;;;10.97;;
8401;SDS011;4238;48.404;9.498;2023-05-16T14:05:21;13.43;;;11.00;;
8401;SDS011;4238;48.404;9.498;2023-05-16T14:07:48;14.33;;;12.87;;
8401;SDS011;4238;48.404;9.498;2023-05-16T14:10:15;13.73;;;12.33;;
8401;SDS011;4238;48.404;9.498;2023-05-16T14:12:43;15.27;;;12.47;;
8401;SDS011;4238;48.404;9.498;2023-05-16T14:15:10;15.63;;;13.03;;
8401;SDS011;4238;48.404;9.498;2023-05-16T14:17:37;14.93;;;13.30;;
8401;SDS011;4238;48.404;9.498;2023-05-16T14:20:04;15.73;;;13.53;;
8401;SDS011;4238;48.404;9.498;2023-05-16T14:22:34;16.27;;;13.97;;
8401;SDS011;4238;48.404;9.498;2023-05-16T14:25:02;19.17;;;14.63;;
8401;SDS011;4238;48.404;9.498;2023-05-16T14:27:30;15.77;;;14.10;;
8401;SDS011;4238;48.404;9.498;2023-05-16T14:29:58;13.70;;;12.30;;
8401;SDS011;4238;48.404;9.498;2023-05-16T14:32:25;14.57;;;13.17;;
8401;SDS011;4238;48.404;9.498;2023-05-16T14:34:52;14.70;;;11.70;;
8401;SDS011;4238;48.404;9.498;2023-05-16T14:37:19;14.40;;;11.93;;
8401;SDS011;4238;48.404;9.498;2023-05-16T14:39:46;12.07;;;10.87;;
8401;SDS011;4238;48.404;9.498;2023-05-16T14:42:14;13.67;;;12.07;;
8401;SDS011;4238;48.404;9.498;2023-05-16T14:44:42;13.03;;;11.67;;
8401;SDS011;4238;48.404;9.498;2023-05-16T14:47:10;13.27;;;11.87;;
8401;SDS011;4238;48.404;9.498;2023-05-16T14:49:37;12.10;;;10.70;;
8401;SDS011;4238;48.404;9.498;2023-05-16T14:52:04;11.67;;;10.50;;
8401;SDS011;4238;48.404;9.498;2023-05-16T14:54:31;13.50;;;11.70;;
8401;SDS011;4238;48.404;9.498;2023-05-16T14:56:59;12.80;;;11.40;;
8401;SDS011;4238;48.404;9.498;2023-05-16T14:59:27;12.73;;;11.43;;
8401;SDS011;4238;48.404;9.498;2023-05-16T15:01:55;15.70;;;13.03;;
8401;SDS011;4238;48.404;9.498;2023-05-16T15:04:23;13.93;;;12.43;;
8401;SDS011;4238;48.404;9.498;2023-05-16T15:06:52;12.77;;;11.40;;
8401;SDS011;4238;48.404;9.498;2023-05-16T15:09:18;12.53;;;11.33;;
8401;SDS011;4238;48.404;9.498;2023-05-16T15:11:46;12.50;;;11.20;;
8401;SDS011;4238;48.404;9.498;2023-05-16T15:14:13;13.20;;;11.57;;
8401;SDS011;4238;48.404;9.498;2023-05-16T15:16:40;13.13;;;10.87;;
8401;SDS011;4238;48.404;9.498;2023-05-16T15:19:07;12.00;;;10.70;;
8401;SDS011;4238;48.404;9.498;2023-05-16T15:21:35;11.53;;;10.10;;
8401;SDS011;4238;48.404;9.498;2023-05-16T15:24:02;11.67;;;10.47;;
8401;SDS011;4238;48.404;9.498;2023-05-16T15:26:29;13.33;;;11.43;;
8401;SDS011;4238;48.404;9.498;2023-05-16T15:28:56;12.97;;;10.57;;
8401;SDS011;4238;48.404;9.498;2023-05-16T15:31:23;12.73;;;11.03;;
8401;SDS011;4238;48.404;9.498;2023-05-16T15:33:50;11.93;;;10.07;;
8401;SDS011;4238;48.404;9.498;2023-05-16T15:36:17;13.37;;;11.13;;
8401;SDS011;4238;48.404;9.498;2023-05-16T15:38:45;20.83;;;18.30;;
8401;SDS011;4238;48.404;9.498;2023-05-16T15:41:12;15.00;;;13.47;;
8401;SDS011;4238;48.404;9.498;2023-05-16T15:43:39;18.43;;;16.53;;
8401;SDS011;4238;48.404;9.498;2023-05-16T15:46:07;13.03;;;11.27;;
8401;SDS011;4238;48.404;9.498;2023-05-16T15:48:34;12.50;;;11.13;;
8401;SDS011;4238;48.404;9.498;2023-05-16T15:51:01;12.03;;;10.73;;
8401;SDS011;4238;48.404;9.498;2023-05-16T15:53:28;12.30;;;11.10;;
8401;SDS011;4238;48.404;9.498;2023-05-16T15:55:56;11.57;;;10.37;;
8401;SDS011;4238;48.404;9.498;2023-05-16T15:58:23;12.43;;;11.00;;
8401;SDS011;4238;48.404;9.498;2023-05-16T16:00:50;11.63;;;9.93;;
8401;SDS011;4238;48.404;9.498;2023-05-16T16:03:19;13.40;;;10.90;;
8401;SDS011;4238;48.404;9.498;2023-05-16T16:05:46;10.93;;;9.83;;
8401;SDS011;4238;48.404;9.498;2023-05-16T16:08:13;14.93;;;10.47;;
8401;SDS011;4238;48.404;9.498;2023-05-16T16:10:40;9.70;;;8.80;;
8401;SDS011;4238;48.404;9.498;2023-05-16T16:13:08;9.33;;;8.43;;
8401;SDS011;4238;48.404;9.498;2023-05-16T16:15:35;12.30;;;11.00;;
8401;SDS011;4238;48.404;9.498;2023-05-16T16:18:06;11.03;;;9.93;;
8401;SDS011;4238;48.404;9.498;2023-05-16T16:20:33;11.07;;;9.97;;
8401;SDS011;4238;48.404;9.498;2023-05-16T16:23:00;11.47;;;8.97;;
8401;SDS011;4238;48.404;9.498;2023-05-16T16:25:27;9.73;;;8.67;;
8401;SDS011;4238;48.404;9.498;2023-05-16T16:27:53;12.70;;;9.77;;
8401;SDS011;4238;48.404;9.498;2023-05-16T16:30:22;10.90;;;9.80;;
8401;SDS011;4238;48.404;9.498;2023-05-16T16:32:49;9.37;;;8.57;;
8401;SDS011;4238;48.404;9.498;2023-05-16T16:35:15;9.20;;;8.27;;
8401;SDS011;4238;48.404;9.498;2023-05-16T16:37:42;8.87;;;7.97;;
8401;SDS011;4238;48.404;9.498;2023-05-16T16:40:10;11.03;;;9.40;;
8401;SDS011;4238;48.404;9.498;2023-05-16T16:42:37;9.57;;;7.87;;
8401;SDS011;4238;48.404;9.498;2023-05-16T16:45:05;12.47;;;11.27;;
8401;SDS011;4238;48.404;9.498;2023-05-16T16:47:34;9.03;;;8.00;;
8401;SDS011;4238;48.404;9.498;2023-05-16T16:50:03;7.90;;;7.20;;
8401;SDS011;4238;48.404;9.498;2023-05-16T16:52:30;7.10;;;6.50;;
8401;SDS011;4238;48.404;9.498;2023-05-16T16:54:57;6.53;;;6.00;;
8401;SDS011;4238;48.404;9.498;2023-05-16T16:57:24;7.60;;;6.80;;
8401;SDS011;4238;48.404;9.498;2023-05-16T16:59:51;6.00;;;5.50;;
8401;SDS011;4238;48.404;9.498;2023-05-16T17:02:18;5.83;;;5.20;;
8401;SDS011;4238;48.404;9.498;2023-05-16T17:04:46;8.50;;;6.83;;
8401;SDS011;4238;48.404;9.498;2023-05-16T17:07:13;7.57;;;5.30;;
8401;SDS011;4238;48.404;9.498;2023-05-16T17:09:40;6.23;;;5.63;;
8401;SDS011;4238;48.404;9.498;2023-05-16T17:12:07;5.57;;;5.00;;
8401;SDS011;4238;48.404;9.498;2023-05-16T17:14:42;6.20;;;5.43;;
8401;SDS011;4238;48.404;9.498;2023-05-16T17:17:10;6.40;;;5.80;;
8401;SDS011;4238;48.404;9.498;2023-05-16T17:19:37;7.47;;;6.03;;
8401;SDS011;4238;48.404;9.498;2023-05-16T17:22:05;6.13;;;5.53;;
8401;SDS011;4238;48.404;9.498;2023-05-16T17:24:32;5.70;;;4.90;;
8401;SDS011;4238;48.404;9.498;2023-05-16T17:26:59;5.70;;;5.20;;
8401;SDS011;4238;48.404;9.498;2023-05-16T17:29:26;5.67;;;4.90;;
8401;SDS011;4238;48.404;9.498;2023-05-16T17:31:53;5.97;;;5.43;;
8401;SDS011;4238;48.404;9.498;2023-05-16T17:34:20;7.33;;;5.33;;
8401;SDS011;4238;48.404;9.498;2023-05-16T17:36:47;5.67;;;5.03;;
8401;SDS011;4238;48.404;9.498;2023-05-16T17:39:15;6.80;;;6.10;;
8401;SDS011;4238;48.404;9.498;2023-05-16T17:41:42;6.87;;;6.17;;
8401;SDS011;4238;48.404;9.498;2023-05-16T17:44:09;10.03;;;9.03;;
8401;SDS011;4238;48.404;9.498;2023-05-16T17:46:36;6.13;;;5.53;;
8401;SDS011;4238;48.404;9.498;2023-05-16T17:49:03;6.40;;;5.40;;
8401;SDS011;4238;48.404;9.498;2023-05-16T17:51:43;4.73;;;4.27;;
8401;SDS011;4238;48.404;9.498;2023-05-16T17:54:11;8.07;;;6.20;;
8401;SDS011;4238;48.404;9.498;2023-05-16T17:56:39;7.63;;;6.90;;
8401;SDS011;4238;48.404;9.498;2023-05-16T17:59:06;5.40;;;4.20;;
8401;SDS011;4238;48.404;9.498;2023-05-16T18:01:34;13.90;;;10.13;;
8401;SDS011;4238;48.404;9.498;2023-05-16T18:04:01;9.73;;;5.63;;
8401;SDS011;4238;48.404;9.498;2023-05-16T18:06:28;20.13;;;16.83;;
8401;SDS011;4238;48.404;9.498;2023-05-16T18:08:55;7.10;;;6.27;;
8401;SDS011;4238;48.404;9.498;2023-05-16T18:11:22;10.47;;;6.37;;
8401;SDS011;4238;48.404;9.498;2023-05-16T18:13:51;7.77;;;5.97;;
8401;SDS011;4238;48.404;9.498;2023-05-16T18:16:18;11.67;;;9.40;;
8401;SDS011;4238;48.404;9.498;2023-05-16T18:18:47;8.07;;;6.33;;
8401;SDS011;4238;48.404;9.498;2023-05-16T18:21:14;5.53;;;4.70;;
8401;SDS011;4238;48.404;9.498;2023-05-16T18:23:40;5.53;;;4.83;;
8401;SDS011;4238;48.404;9.498;2023-05-16T18:26:07;4.13;;;3.77;;
8401;SDS011;4238;48.404;9.498;2023-05-16T18:28:34;6.53;;;3.87;;
8401;SDS011;4238;48.404;9.498;2023-05-16T18:31:03;4.20;;;3.80;;
8401;SDS011;4238;48.404;9.498;2023-05-16T18:33:30;5.80;;;4.00;;
8401;SDS011;4238;48.404;9.498;2023-05-16T18:35:56;6.50;;;4.30;;
8401;SDS011;4238;48.404;9.498;2023-05-16T18:38:23;6.27;;;4.10;;
8401;SDS011;4238;48.404;9.498;2023-05-16T18:40:50;5.83;;;4.37;;
8401;SDS011;4238;48.404;9.498;2023-05-16T18:43:17;6.67;;;5.37;;
8401;SDS011;4238;48.404;9.498;2023-05-16T18:45:44;7.70;;;6.00;;
8401;SDS011;4238;48.404;9.498;2023-05-16T18:48:12;12.53;;;9.27;;
8401;SDS011;4238;48.404;9.498;2023-05-16T18:50:39;7.07;;;5.37;;
8401;SDS011;4238;48.404;9.498;2023-05-16T18:53:06;6.80;;;6.10;;
8401;SDS011;4238;48.404;9.498;2023-05-16T18:55:33;10.13;;;7.43;;
8401;SDS011;4238;48.404;9.498;2023-05-16T18:58:00;7.07;;;5.73;;
8401;SDS011;4238;48.404;9.498;2023-05-16T19:00:27;9.70;;;5.40;;